createdAt,value
2023-03-29T00:00:14.783Z,93266.00
2023-03-29T00:01:35.051Z,93262.00
2023-03-29T00:02:15.835Z,93262.00
2023-03-29T00:03:14.938Z,93262.00
2023-03-29T00:04:14.816Z,93266.00
2023-03-29T00:05:14.785Z,93272.00
2023-03-29T00:06:14.774Z,93282.00
2023-03-29T00:07:14.752Z,93284.00
2023-03-29T00:08:15.003Z,93286.00
2023-03-29T00:09:14.735Z,93284.00
2023-03-29T00:10:14.712Z,93282.00
2023-03-29T00:11:14.684Z,93280.00
2023-03-29T00:12:14.681Z,93276.00
2023-03-29T00:13:14.720Z,93280.00
2023-03-29T00:14:14.758Z,93286.00
2023-03-29T00:15:14.800Z,93288.00
2023-03-29T00:16:14.859Z,93297.00
2023-03-29T00:17:14.928Z,93295.00
2023-03-29T00:18:14.919Z,93290.00
2023-03-29T00:19:14.954Z,93290.00
2023-03-29T00:20:14.993Z,93286.00
2023-03-29T00:21:15.040Z,93282.00
2023-03-29T00:22:15.076Z,93282.00
2023-03-29T00:23:15.111Z,93278.00
2023-03-29T00:24:15.162Z,93278.00
2023-03-29T00:25:15.204Z,93278.00
2023-03-29T00:26:15.246Z,93278.00
2023-03-29T00:27:15.284Z,93280.00
2023-03-29T00:28:15.328Z,93282.00
2023-03-29T00:29:15.366Z,93282.00
2023-03-29T00:30:15.429Z,93282.00
2023-03-29T00:31:15.484Z,93284.00
2023-03-29T00:32:15.485Z,93286.00
2023-03-29T00:33:15.517Z,93294.00
2023-03-29T00:34:15.575Z,93297.00
2023-03-29T00:35:15.595Z,93299.00
2023-03-29T00:36:15.633Z,93301.00
2023-03-29T00:37:15.691Z,93307.00
2023-03-29T00:38:15.712Z,93309.00
2023-03-29T00:39:15.747Z,93311.00
2023-03-29T00:40:15.843Z,93309.00
2023-03-29T00:41:15.824Z,93311.00
2023-03-29T00:42:15.870Z,93313.00
2023-03-29T00:43:15.900Z,93315.00
2023-03-29T00:44:15.937Z,93315.00
2023-03-29T00:45:15.979Z,93317.00
2023-03-29T00:46:16.069Z,93319.00
2023-03-29T00:47:16.048Z,93321.00
2023-03-29T00:48:16.084Z,93327.00
2023-03-29T00:49:16.127Z,93329.00
2023-03-29T00:50:16.164Z,93331.00
2023-03-29T00:51:16.207Z,93331.00
2023-03-29T00:52:16.249Z,93329.00
2023-03-29T00:53:16.283Z,93335.00
2023-03-29T00:54:16.332Z,93339.00
2023-03-29T00:55:16.370Z,93341.00
2023-03-29T00:56:16.409Z,93339.00
2023-03-29T00:57:17.126Z,93337.00
2023-03-29T00:58:16.496Z,93337.00
2023-03-29T00:59:16.547Z,93337.00
2023-03-29T01:00:16.582Z,93341.00
2023-03-29T01:01:16.667Z,93341.00
2023-03-29T01:02:16.725Z,93342.00
2023-03-29T01:03:16.837Z,93342.00
2023-03-29T01:04:16.791Z,93341.00
2023-03-29T01:05:16.844Z,93335.00
2023-03-29T01:06:16.897Z,93331.00
2023-03-29T01:07:17.017Z,93331.00
2023-03-29T01:08:16.973Z,93331.00
2023-03-29T01:09:17.021Z,93333.00
2023-03-29T01:10:17.068Z,93331.00
2023-03-29T01:11:17.113Z,93329.00
2023-03-29T01:12:17.177Z,93325.00
2023-03-29T01:13:17.207Z,93327.00
2023-03-29T01:14:17.248Z,93329.00
2023-03-29T01:15:17.289Z,93333.00
2023-03-29T01:16:17.380Z,93333.00
2023-03-29T01:17:17.386Z,93333.00
2023-03-29T01:18:17.431Z,93331.00
2023-03-29T01:19:17.527Z,93329.00
2023-03-29T01:20:17.536Z,93329.00
2023-03-29T01:21:17.606Z,93329.00
2023-03-29T01:22:17.602Z,93331.00
2023-03-29T01:23:17.654Z,93335.00
2023-03-29T01:24:17.718Z,93335.00
2023-03-29T01:25:17.742Z,93333.00
2023-03-29T01:26:17.795Z,93333.00
2023-03-29T01:27:17.848Z,93331.00
2023-03-29T01:28:17.906Z,93333.00
2023-03-29T01:29:17.954Z,93333.00
2023-03-29T01:30:17.987Z,93335.00
2023-03-29T01:31:18.052Z,93333.00
2023-03-29T01:32:18.099Z,93335.00
2023-03-29T01:33:18.125Z,93333.00
2023-03-29T01:34:18.191Z,93333.00
2023-03-29T01:35:18.231Z,93333.00
2023-03-29T01:36:18.347Z,93341.00
2023-03-29T01:37:18.322Z,93339.00
2023-03-29T01:38:18.357Z,93342.00
2023-03-29T01:39:18.411Z,93344.00
2023-03-29T01:40:18.449Z,93346.00
2023-03-29T01:41:18.487Z,93344.00
2023-03-29T01:42:18.532Z,93350.00
2023-03-29T01:43:18.574Z,93348.00
2023-03-29T01:44:18.628Z,93346.00
2023-03-29T01:45:18.655Z,93346.00
2023-03-29T01:46:18.737Z,93346.00
2023-03-29T01:47:18.756Z,93346.00
2023-03-29T01:48:18.797Z,93342.00
2023-03-29T01:49:18.843Z,93341.00
2023-03-29T01:50:18.889Z,93341.00
2023-03-29T01:51:18.917Z,93342.00
2023-03-29T01:52:18.969Z,93341.00
2023-03-29T01:53:19.010Z,93339.00
2023-03-29T01:54:19.041Z,93331.00
2023-03-29T01:55:19.074Z,93325.00
2023-03-29T01:56:19.112Z,93325.00
2023-03-29T01:57:19.216Z,93327.00
2023-03-29T01:58:19.184Z,93331.00
2023-03-29T01:59:19.236Z,93335.00
2023-03-29T02:00:19.273Z,93337.00
2023-03-29T02:01:19.322Z,93337.00
2023-03-29T02:02:19.376Z,93335.00
2023-03-29T02:03:19.468Z,93335.00
2023-03-29T02:04:19.432Z,93329.00
2023-03-29T02:05:19.470Z,93325.00
2023-03-29T02:06:19.508Z,93315.00
2023-03-29T02:07:19.551Z,93311.00
2023-03-29T02:08:19.596Z,93305.00
2023-03-29T02:09:19.645Z,93301.00
2023-03-29T02:10:19.701Z,93301.00
2023-03-29T02:11:19.730Z,93299.00
2023-03-29T02:12:19.775Z,93307.00
2023-03-29T02:13:19.823Z,93315.00
2023-03-29T02:14:19.877Z,93319.00
2023-03-29T02:15:19.932Z,93317.00
2023-03-29T02:16:20.013Z,93313.00
2023-03-29T02:17:20.032Z,93309.00
2023-03-29T02:18:20.056Z,93313.00
2023-03-29T02:19:20.104Z,93311.00
2023-03-29T02:20:20.158Z,93309.00
2023-03-29T02:21:20.186Z,93311.00
2023-03-29T02:22:20.230Z,93309.00
2023-03-29T02:23:20.294Z,93311.00
2023-03-29T02:24:20.332Z,93311.00
2023-03-29T02:25:20.371Z,93309.00
2023-03-29T02:26:20.417Z,93303.00
2023-03-29T02:27:20.465Z,93301.00
2023-03-29T02:28:20.513Z,93295.00
2023-03-29T02:29:20.554Z,93294.00
2023-03-29T02:30:20.600Z,93292.00
2023-03-29T02:31:20.696Z,93290.00
2023-03-29T02:32:20.684Z,93288.00
2023-03-29T02:33:20.732Z,93294.00
2023-03-29T02:34:20.777Z,93292.00
2023-03-29T02:35:20.809Z,93290.00
2023-03-29T02:36:20.908Z,93286.00
2023-03-29T02:37:20.877Z,93288.00
2023-03-29T02:38:20.929Z,93286.00
2023-03-29T02:39:20.974Z,93284.00
2023-03-29T02:40:21.043Z,93288.00
2023-03-29T02:41:21.062Z,93295.00
2023-03-29T02:42:21.100Z,93292.00
2023-03-29T02:43:21.880Z,93290.00
2023-03-29T02:44:21.199Z,93292.00
2023-03-29T02:45:21.233Z,93288.00
2023-03-29T02:46:21.305Z,93286.00
2023-03-29T02:47:21.317Z,93280.00
2023-03-29T02:48:21.355Z,93284.00
2023-03-29T02:49:21.413Z,93292.00
2023-03-29T02:50:21.454Z,93294.00
2023-03-29T02:51:21.499Z,93297.00
2023-03-29T02:52:21.552Z,93299.00
2023-03-29T02:53:21.595Z,93307.00
2023-03-29T02:54:21.639Z,93313.00
2023-03-29T02:55:21.685Z,93309.00
2023-03-29T02:56:21.724Z,93313.00
2023-03-29T02:57:21.844Z,93307.00
2023-03-29T02:58:21.817Z,93307.00
2023-03-29T02:59:21.865Z,93303.00
2023-03-29T03:00:21.905Z,93297.00
2023-03-29T03:01:22.023Z,93286.00
2023-03-29T03:02:21.993Z,93290.00
2023-03-29T03:03:22.137Z,93288.00
2023-03-29T03:04:22.105Z,93286.00
2023-03-29T03:05:22.137Z,93284.00
2023-03-29T03:06:22.195Z,93278.00
2023-03-29T03:07:22.248Z,93280.00
2023-03-29T03:08:22.276Z,93280.00
2023-03-29T03:09:22.347Z,93288.00
2023-03-29T03:10:22.360Z,93295.00
2023-03-29T03:11:22.400Z,93303.00
2023-03-29T03:12:22.452Z,93305.00
2023-03-29T03:13:22.494Z,93294.00
2023-03-29T03:14:22.537Z,93297.00
2023-03-29T03:15:22.567Z,93292.00
2023-03-29T03:16:22.648Z,93297.00
2023-03-29T03:17:22.663Z,93297.00
2023-03-29T03:18:22.690Z,93301.00
2023-03-29T03:19:22.721Z,93299.00
2023-03-29T03:20:22.746Z,93295.00
2023-03-29T03:21:22.782Z,93294.00
2023-03-29T03:22:22.801Z,93290.00
2023-03-29T03:23:22.810Z,93286.00
2023-03-29T03:24:22.840Z,93282.00
2023-03-29T03:25:22.856Z,93280.00
2023-03-29T03:26:22.879Z,93280.00
2023-03-29T03:27:22.907Z,93290.00
2023-03-29T03:28:22.933Z,93288.00
2023-03-29T03:29:22.948Z,93295.00
2023-03-29T03:30:22.980Z,93288.00
2023-03-29T03:31:23.016Z,93280.00
2023-03-29T03:32:23.020Z,93276.00
2023-03-29T03:33:23.035Z,93268.00
2023-03-29T03:34:23.073Z,93266.00
2023-03-29T03:35:23.077Z,93264.00
2023-03-29T03:36:23.101Z,93266.00
2023-03-29T03:37:23.113Z,93268.00
2023-03-29T03:38:23.130Z,93270.00
2023-03-29T03:39:23.179Z,93274.00
2023-03-29T03:40:23.178Z,93272.00
2023-03-29T03:41:23.174Z,93276.00
2023-03-29T03:42:23.180Z,93268.00
2023-03-29T03:43:23.194Z,93260.00
2023-03-29T03:44:23.213Z,93256.00
2023-03-29T03:45:23.226Z,93264.00
2023-03-29T03:46:23.298Z,93272.00
2023-03-29T03:47:23.296Z,93280.00
2023-03-29T03:48:23.276Z,93284.00
2023-03-29T03:49:23.306Z,93272.00
2023-03-29T03:50:23.331Z,93266.00
2023-03-29T03:51:23.339Z,93262.00
2023-03-29T03:52:23.342Z,93258.00
2023-03-29T03:53:23.356Z,93254.00
2023-03-29T03:54:23.378Z,93252.00
2023-03-29T03:55:23.390Z,93254.00
2023-03-29T03:56:23.388Z,93260.00
2023-03-29T03:57:23.426Z,93256.00
2023-03-29T03:58:23.417Z,93252.00
2023-03-29T03:59:23.431Z,93245.00
2023-03-29T04:00:23.439Z,93237.00
2023-03-29T04:01:23.455Z,93241.00
2023-03-29T04:02:23.492Z,93243.00
2023-03-29T04:03:23.549Z,93254.00
2023-03-29T04:04:23.579Z,93266.00
2023-03-29T04:05:23.449Z,93272.00
2023-03-29T04:06:23.614Z,93276.00
2023-03-29T04:07:23.459Z,93278.00
2023-03-29T04:08:23.471Z,93274.00
2023-03-29T04:09:23.482Z,93272.00
2023-03-29T04:10:23.477Z,93268.00
2023-03-29T04:11:23.494Z,93266.00
2023-03-29T04:12:23.501Z,93262.00
2023-03-29T04:13:23.500Z,93264.00
2023-03-29T04:14:23.506Z,93262.00
2023-03-29T04:15:23.502Z,93258.00
2023-03-29T04:16:23.547Z,93258.00
2023-03-29T04:17:23.547Z,93256.00
2023-03-29T04:18:23.597Z,93254.00
2023-03-29T04:19:23.531Z,93254.00
2023-03-29T04:20:23.517Z,93256.00
2023-03-29T04:21:23.540Z,93264.00
2023-03-29T04:22:23.538Z,93260.00
2023-03-29T04:23:23.538Z,93260.00
2023-03-29T04:24:23.548Z,93258.00
2023-03-29T04:25:23.544Z,93252.00
2023-03-29T04:26:23.565Z,93252.00
2023-03-29T04:27:23.561Z,93254.00
2023-03-29T04:28:23.567Z,93245.00
2023-03-29T04:29:23.582Z,93239.00
2023-03-29T04:30:23.589Z,93235.00
2023-03-29T04:31:23.633Z,93235.00
2023-03-29T04:32:23.647Z,93239.00
2023-03-29T04:33:23.599Z,93237.00
2023-03-29T04:34:23.666Z,93233.00
2023-03-29T04:35:23.623Z,93229.00
2023-03-29T04:36:23.649Z,93221.00
2023-03-29T04:37:23.622Z,93225.00
2023-03-29T04:38:23.693Z,93219.00
2023-03-29T04:39:23.653Z,93223.00
2023-03-29T04:40:23.664Z,93229.00
2023-03-29T04:41:23.687Z,93235.00
2023-03-29T04:42:23.671Z,93241.00
2023-03-29T04:43:23.714Z,93243.00
2023-03-29T04:44:23.700Z,93245.00
2023-03-29T04:45:23.729Z,93243.00
2023-03-29T04:46:23.779Z,93241.00
2023-03-29T04:47:23.808Z,93239.00
2023-03-29T04:48:23.732Z,93237.00
2023-03-29T04:49:25.993Z,93237.00
2023-03-29T04:50:23.789Z,93245.00
2023-03-29T04:51:23.787Z,93248.00
2023-03-29T04:52:24.509Z,93248.00
2023-03-29T04:53:23.814Z,93245.00
2023-03-29T04:54:23.828Z,93250.00
2023-03-29T04:55:23.841Z,93252.00
2023-03-29T04:56:23.849Z,93252.00
2023-03-29T04:57:23.954Z,93248.00
2023-03-29T04:58:27.120Z,93243.00
2023-03-29T04:59:24.837Z,93241.00
2023-03-29T05:00:23.838Z,93241.00
2023-03-29T05:01:23.877Z,93241.00
2023-03-29T05:02:23.833Z,93241.00
2023-03-29T05:03:23.782Z,93239.00
2023-03-29T05:04:23.806Z,93239.00
2023-03-29T05:05:23.763Z,93237.00
2023-03-29T05:06:23.730Z,93235.00
2023-03-29T05:07:23.714Z,93237.00
2023-03-29T05:08:23.700Z,93233.00
2023-03-29T05:09:23.693Z,93241.00
2023-03-29T05:10:23.676Z,93239.00
2023-03-29T05:11:23.654Z,93241.00
2023-03-29T05:12:23.634Z,93239.00
2023-03-29T05:13:23.617Z,93241.00
2023-03-29T05:14:23.603Z,93237.00
2023-03-29T05:15:23.589Z,93233.00
2023-03-29T05:16:23.626Z,93233.00
2023-03-29T05:17:23.592Z,93239.00
2023-03-29T05:18:23.553Z,93247.00
2023-03-29T05:19:23.543Z,93245.00
2023-03-29T05:20:23.719Z,93248.00
2023-03-29T05:21:23.586Z,93250.00
2023-03-29T05:22:23.596Z,93252.00
2023-03-29T05:23:23.615Z,93243.00
2023-03-29T05:24:23.634Z,93243.00
2023-03-29T05:25:23.663Z,93241.00
2023-03-29T05:26:23.668Z,93243.00
2023-03-29T05:27:23.679Z,93241.00
2023-03-29T05:28:23.689Z,93235.00
2023-03-29T05:29:23.737Z,93233.00
2023-03-29T05:30:23.721Z,93233.00
2023-03-29T05:31:23.754Z,93235.00
2023-03-29T05:32:23.843Z,93237.00
2023-03-29T05:33:23.755Z,93237.00
2023-03-29T05:34:23.848Z,93235.00
2023-03-29T05:35:23.767Z,93237.00
2023-03-29T05:36:23.759Z,93239.00
2023-03-29T05:37:23.762Z,93239.00
2023-03-29T05:38:23.767Z,93237.00
2023-03-29T05:39:23.775Z,93237.00
2023-03-29T05:40:23.778Z,93237.00
2023-03-29T05:41:23.779Z,93235.00
2023-03-29T05:42:23.778Z,93239.00
2023-03-29T05:43:23.783Z,93239.00
2023-03-29T05:44:23.780Z,93241.00
2023-03-29T05:45:23.813Z,93237.00
2023-03-29T05:46:23.784Z,93235.00
2023-03-29T05:47:23.806Z,93241.00
2023-03-29T05:48:23.797Z,93237.00
2023-03-29T05:49:23.798Z,93237.00
2023-03-29T05:50:23.783Z,93235.00
2023-03-29T05:51:23.772Z,93237.00
2023-03-29T05:52:23.789Z,93239.00
2023-03-29T05:53:23.782Z,93247.00
2023-03-29T05:54:23.781Z,93243.00
2023-03-29T05:55:23.794Z,93247.00
2023-03-29T05:56:23.807Z,93245.00
2023-03-29T05:57:23.899Z,93248.00
2023-03-29T05:58:23.818Z,93243.00
2023-03-29T05:59:23.824Z,93245.00
2023-03-29T06:00:24.052Z,93250.00
2023-03-29T06:01:23.837Z,93245.00
2023-03-29T06:02:23.963Z,93243.00
2023-03-29T06:03:23.946Z,93235.00
2023-03-29T06:04:23.956Z,93235.00
2023-03-29T06:05:24.744Z,93243.00
2023-03-29T06:06:23.883Z,93239.00
2023-03-29T06:07:23.883Z,93235.00
2023-03-29T06:08:23.900Z,93227.00
2023-03-29T06:09:23.909Z,93227.00
2023-03-29T06:10:23.934Z,93231.00
2023-03-29T06:11:23.932Z,93233.00
2023-03-29T06:12:23.935Z,93231.00
2023-03-29T06:13:23.951Z,93233.00
2023-03-29T06:14:23.949Z,93233.00
2023-03-29T06:15:23.966Z,93233.00
2023-03-29T06:16:24.001Z,93227.00
2023-03-29T06:17:24.076Z,93217.00
2023-03-29T06:18:23.987Z,93219.00
2023-03-29T06:19:23.986Z,93219.00
2023-03-29T06:20:24.003Z,93221.00
2023-03-29T06:21:24.011Z,93221.00
2023-03-29T06:22:24.011Z,93231.00
2023-03-29T06:23:24.020Z,93237.00
2023-03-29T06:24:24.036Z,93227.00
2023-03-29T06:25:24.031Z,93223.00
2023-03-29T06:26:24.078Z,93227.00
2023-03-29T06:27:24.069Z,93221.00
2023-03-29T06:28:24.069Z,93223.00
2023-03-29T06:29:24.130Z,93223.00
2023-03-29T06:30:24.095Z,93233.00
2023-03-29T06:31:24.164Z,93227.00
2023-03-29T06:32:24.125Z,93227.00
2023-03-29T06:33:24.107Z,93231.00
2023-03-29T06:34:24.125Z,93229.00
2023-03-29T06:35:24.299Z,93239.00
2023-03-29T06:36:24.154Z,93237.00
2023-03-29T06:37:24.163Z,93233.00
2023-03-29T06:38:24.169Z,93223.00
2023-03-29T06:39:24.164Z,93217.00
2023-03-29T06:40:24.180Z,93221.00
2023-03-29T06:41:24.211Z,93223.00
2023-03-29T06:42:24.171Z,93217.00
2023-03-29T06:43:24.155Z,93215.00
2023-03-29T06:44:24.140Z,93231.00
2023-03-29T06:45:24.740Z,93227.00
2023-03-29T06:46:24.164Z,93229.00
2023-03-29T06:47:24.127Z,93225.00
2023-03-29T06:48:24.094Z,93227.00
2023-03-29T06:49:24.141Z,93231.00
2023-03-29T06:50:24.235Z,93227.00
2023-03-29T06:51:24.231Z,93231.00
2023-03-29T06:52:24.234Z,93241.00
2023-03-29T06:53:24.232Z,93231.00
2023-03-29T06:54:24.276Z,93225.00
2023-03-29T06:55:24.333Z,93221.00
2023-03-29T06:56:24.357Z,93227.00
2023-03-29T06:57:24.546Z,93227.00
2023-03-29T06:58:24.422Z,93229.00
2023-03-29T06:59:24.482Z,93235.00
2023-03-29T07:00:24.522Z,93245.00
2023-03-29T07:01:24.596Z,93247.00
2023-03-29T07:02:24.662Z,93247.00
2023-03-29T07:03:24.646Z,93241.00
2023-03-29T07:04:24.741Z,93239.00
2023-03-29T07:05:24.727Z,93243.00
2023-03-29T07:06:24.771Z,93239.00
2023-03-29T07:07:24.815Z,93241.00
2023-03-29T07:08:24.831Z,93241.00
2023-03-29T07:09:24.870Z,93248.00
2023-03-29T07:10:25.037Z,93252.00
2023-03-29T07:11:24.939Z,93250.00
2023-03-29T07:12:24.967Z,93262.00
2023-03-29T07:13:24.970Z,93258.00
2023-03-29T07:14:24.991Z,93260.00
2023-03-29T07:15:25.022Z,93256.00
2023-03-29T07:16:25.049Z,93262.00
2023-03-29T07:17:25.076Z,93262.00
2023-03-29T07:18:25.043Z,93262.00
2023-03-29T07:19:25.055Z,93260.00
2023-03-29T07:20:25.096Z,93264.00
2023-03-29T07:21:25.082Z,93264.00
2023-03-29T07:22:25.073Z,93270.00
2023-03-29T07:23:25.093Z,93274.00
2023-03-29T07:24:25.099Z,93276.00
2023-03-29T07:25:25.144Z,93278.00
2023-03-29T07:26:28.969Z,93278.00
2023-03-29T07:27:26.146Z,93284.00
2023-03-29T07:28:25.136Z,93280.00
2023-03-29T07:29:25.113Z,93276.00
2023-03-29T07:30:25.135Z,93276.00
2023-03-29T07:31:25.082Z,93276.00
2023-03-29T07:32:25.134Z,93270.00
2023-03-29T07:33:25.127Z,93268.00
2023-03-29T07:34:25.049Z,93268.00
2023-03-29T07:35:25.018Z,93272.00
2023-03-29T07:36:25.001Z,93268.00
2023-03-29T07:37:25.052Z,93270.00
2023-03-29T07:38:25.106Z,93264.00
2023-03-29T07:39:25.129Z,93268.00
2023-03-29T07:40:25.235Z,93268.00
2023-03-29T07:41:25.106Z,93262.00
2023-03-29T07:42:25.097Z,93258.00
2023-03-29T07:43:25.115Z,93260.00
2023-03-29T07:44:25.182Z,93266.00
2023-03-29T07:45:26.521Z,93264.00
2023-03-29T07:46:25.291Z,93262.00
2023-03-29T07:47:25.156Z,93258.00
2023-03-29T07:48:25.105Z,93258.00
2023-03-29T07:49:25.081Z,93264.00
2023-03-29T07:50:25.063Z,93272.00
2023-03-29T07:51:25.040Z,93270.00
2023-03-29T07:52:25.034Z,93258.00
2023-03-29T07:53:25.017Z,93256.00
2023-03-29T07:54:25.046Z,93264.00
2023-03-29T07:55:24.966Z,93254.00
2023-03-29T07:56:25.006Z,93274.00
2023-03-29T07:57:25.107Z,93276.00
2023-03-29T07:58:24.923Z,93262.00
2023-03-29T07:59:24.911Z,93256.00
2023-03-29T08:00:25.924Z,93252.00
2023-03-29T08:01:24.948Z,93266.00
2023-03-29T08:02:24.892Z,93278.00
2023-03-29T08:03:24.898Z,93280.00
2023-03-29T08:04:24.994Z,93264.00
2023-03-29T08:05:37.604Z,93264.00
2023-03-29T08:06:25.777Z,93260.00
2023-03-29T08:07:24.739Z,93264.00
2023-03-29T08:08:24.746Z,93260.00
2023-03-29T08:09:24.713Z,93254.00
2023-03-29T08:10:24.709Z,93247.00
2023-03-29T08:11:24.682Z,93247.00
2023-03-29T08:12:25.096Z,93245.00
2023-03-29T08:13:24.656Z,93250.00
2023-03-29T08:14:24.637Z,93250.00
2023-03-29T08:15:24.625Z,93266.00
2023-03-29T08:16:24.639Z,93264.00
2023-03-29T08:17:24.634Z,93272.00
2023-03-29T08:18:24.571Z,93258.00
2023-03-29T08:19:24.552Z,93264.00
2023-03-29T08:20:24.544Z,93264.00
2023-03-29T08:21:24.534Z,93264.00
2023-03-29T08:22:24.512Z,93254.00
2023-03-29T08:23:24.518Z,93268.00
2023-03-29T08:24:24.493Z,93272.00
2023-03-29T08:25:24.480Z,93266.00
2023-03-29T08:26:24.469Z,93252.00
2023-03-29T08:27:24.450Z,93254.00
2023-03-29T08:28:24.439Z,93260.00
2023-03-29T08:29:25.284Z,93258.00
2023-03-29T08:30:24.428Z,93247.00
2023-03-29T08:31:24.465Z,93256.00
2023-03-29T08:32:24.468Z,93248.00
2023-03-29T08:33:24.420Z,93241.00
2023-03-29T08:34:25.384Z,93229.00
2023-03-29T08:35:24.366Z,93235.00
2023-03-29T08:36:25.288Z,93233.00
2023-03-29T08:37:24.331Z,93237.00
2023-03-29T08:38:24.462Z,93239.00
2023-03-29T08:39:24.277Z,93241.00
2023-03-29T08:40:24.250Z,93245.00
2023-03-29T08:41:24.233Z,93247.00
2023-03-29T08:42:24.249Z,93247.00
2023-03-29T08:43:24.297Z,93254.00
2023-03-29T08:44:24.341Z,93264.00
2023-03-29T08:45:24.380Z,93264.00
2023-03-29T08:46:24.451Z,93264.00
2023-03-29T08:47:24.472Z,93264.00
2023-03-29T08:48:25.209Z,93264.00
2023-03-29T08:49:24.531Z,93268.00
2023-03-29T08:50:24.544Z,93264.00
2023-03-29T08:51:24.599Z,93264.00
2023-03-29T08:52:25.217Z,93264.00
2023-03-29T08:53:24.641Z,93268.00
2023-03-29T08:54:24.665Z,93266.00
2023-03-29T08:55:24.684Z,93260.00
2023-03-29T08:56:24.706Z,93260.00
2023-03-29T08:57:25.815Z,93256.00
2023-03-29T08:58:24.667Z,93260.00
2023-03-29T08:59:24.636Z,93256.00
2023-03-29T09:00:24.619Z,93256.00
2023-03-29T09:01:24.582Z,93258.00
2023-03-29T09:02:24.648Z,93258.00
2023-03-29T09:03:24.599Z,93252.00
2023-03-29T09:04:24.504Z,93247.00
2023-03-29T09:05:24.484Z,93256.00
2023-03-29T09:06:24.453Z,93247.00
2023-03-29T09:07:26.453Z,93247.00
2023-03-29T09:08:24.403Z,93258.00
2023-03-29T09:09:24.369Z,93272.00
2023-03-29T09:10:24.336Z,93272.00
2023-03-29T09:11:24.350Z,93266.00
2023-03-29T09:12:24.283Z,93260.00
2023-03-29T09:13:24.276Z,93260.00
2023-03-29T09:14:24.227Z,93250.00
2023-03-29T09:15:24.212Z,93250.00
2023-03-29T09:16:24.194Z,93250.00
2023-03-29T09:17:24.179Z,93254.00
2023-03-29T09:18:24.182Z,93250.00
2023-03-29T09:19:24.161Z,93252.00
2023-03-29T09:20:24.143Z,93258.00
2023-03-29T09:21:24.143Z,93264.00
2023-03-29T09:22:24.148Z,93266.00
2023-03-29T09:23:24.133Z,93264.00
2023-03-29T09:24:24.114Z,93258.00
2023-03-29T09:25:24.113Z,93262.00
2023-03-29T09:26:24.100Z,93260.00
2023-03-29T09:27:24.114Z,93260.00
2023-03-29T09:28:24.144Z,93268.00
2023-03-29T09:29:24.041Z,93272.00
2023-03-29T09:30:24.018Z,93276.00
2023-03-29T09:31:24.028Z,93276.00
2023-03-29T09:32:24.082Z,93274.00
2023-03-29T09:33:23.989Z,93276.00
2023-03-29T09:34:23.934Z,93276.00
2023-03-29T09:35:23.945Z,93276.00
2023-03-29T09:36:23.898Z,93274.00
2023-03-29T09:37:23.879Z,93270.00
2023-03-29T09:38:23.857Z,93264.00
2023-03-29T09:39:23.853Z,93266.00
2023-03-29T09:40:23.837Z,93264.00
2023-03-29T09:41:23.819Z,93266.00
2023-03-29T09:42:23.792Z,93262.00
2023-03-29T09:43:23.774Z,93268.00
2023-03-29T09:44:30.763Z,93270.00
2023-03-29T09:45:24.740Z,93274.00
2023-03-29T09:46:23.704Z,93278.00
2023-03-29T09:47:23.693Z,93274.00
2023-03-29T09:48:23.645Z,93276.00
2023-03-29T09:49:23.607Z,93274.00
2023-03-29T09:50:31.718Z,93278.00
2023-03-29T09:51:24.553Z,93282.00
2023-03-29T09:52:23.534Z,93286.00
2023-03-29T09:53:23.496Z,93290.00
2023-03-29T09:54:23.453Z,93286.00
2023-03-29T09:55:23.416Z,93278.00
2023-03-29T09:56:23.387Z,93280.00
2023-03-29T09:57:23.397Z,93284.00
2023-03-29T09:58:23.349Z,93288.00
2023-03-29T09:59:23.303Z,93290.00
2023-03-29T10:00:23.281Z,93288.00
2023-03-29T10:01:23.298Z,93292.00
2023-03-29T10:02:23.225Z,93292.00
2023-03-29T10:03:23.172Z,93297.00
2023-03-29T10:04:23.216Z,93295.00
2023-03-29T10:05:23.146Z,93297.00
2023-03-29T10:06:23.155Z,93299.00
2023-03-29T10:07:23.159Z,93301.00
2023-03-29T10:08:23.192Z,93297.00
2023-03-29T10:09:23.211Z,93295.00
2023-03-29T10:10:23.243Z,93299.00
2023-03-29T10:11:23.362Z,93294.00
2023-03-29T10:12:23.307Z,93292.00
2023-03-29T10:13:23.343Z,93295.00
2023-03-29T10:14:23.348Z,93290.00
2023-03-29T10:15:29.732Z,93297.00
2023-03-29T10:16:24.375Z,93299.00
2023-03-29T10:17:23.325Z,93301.00
2023-03-29T10:18:23.231Z,93294.00
2023-03-29T10:19:23.222Z,93288.00
2023-03-29T10:20:23.178Z,93288.00
2023-03-29T10:21:23.174Z,93286.00
2023-03-29T10:22:23.148Z,93290.00
2023-03-29T10:23:23.068Z,93286.00
2023-03-29T10:24:23.049Z,93292.00
2023-03-29T10:25:23.012Z,93290.00
2023-03-29T10:26:23.009Z,93292.00
2023-03-29T10:27:22.971Z,93292.00
2023-03-29T10:28:22.958Z,93284.00
2023-03-29T10:29:22.996Z,93284.00
2023-03-29T10:30:23.028Z,93286.00
2023-03-29T10:31:23.151Z,93284.00
2023-03-29T10:32:23.245Z,93286.00
2023-03-29T10:33:23.115Z,93272.00
2023-03-29T10:34:23.142Z,93268.00
2023-03-29T10:35:23.157Z,93268.00
2023-03-29T10:36:23.176Z,93264.00
2023-03-29T10:37:23.196Z,93264.00
2023-03-29T10:38:23.204Z,93264.00
2023-03-29T10:39:23.210Z,93258.00
2023-03-29T10:40:23.234Z,93258.00
2023-03-29T10:41:23.226Z,93256.00
2023-03-29T10:42:23.192Z,93256.00
2023-03-29T10:43:23.218Z,93252.00
2023-03-29T10:44:23.196Z,93250.00
2023-03-29T10:45:23.194Z,93248.00
2023-03-29T10:46:23.255Z,93252.00
2023-03-29T10:47:23.345Z,93254.00
2023-03-29T10:48:23.163Z,93252.00
2023-03-29T10:49:24.128Z,93243.00
2023-03-29T10:50:23.092Z,93262.00
2023-03-29T10:51:23.074Z,93258.00
2023-03-29T10:52:23.845Z,93260.00
2023-03-29T10:53:23.014Z,93248.00
2023-03-29T10:54:22.977Z,93247.00
2023-03-29T10:55:22.952Z,93254.00
2023-03-29T10:56:22.925Z,93258.00
2023-03-29T10:57:23.008Z,93258.00
2023-03-29T10:58:22.852Z,93258.00
2023-03-29T10:59:22.823Z,93260.00
2023-03-29T11:00:22.772Z,93254.00
2023-03-29T11:01:22.790Z,93254.00
2023-03-29T11:02:22.749Z,93252.00
2023-03-29T11:03:22.811Z,93247.00
2023-03-29T11:04:22.632Z,93250.00
2023-03-29T11:05:22.611Z,93260.00
2023-03-29T11:06:22.573Z,93268.00
2023-03-29T11:07:22.563Z,93262.00
2023-03-29T11:08:22.504Z,93256.00
2023-03-29T11:09:22.477Z,93258.00
2023-03-29T11:10:22.448Z,93260.00
2023-03-29T11:11:22.405Z,93260.00
2023-03-29T11:12:22.373Z,93256.00
2023-03-29T11:13:22.348Z,93254.00
2023-03-29T11:14:22.326Z,93250.00
2023-03-29T11:15:22.330Z,93252.00
2023-03-29T11:16:22.428Z,93248.00
2023-03-29T11:17:22.360Z,93247.00
2023-03-29T11:18:22.313Z,93241.00
2023-03-29T11:19:22.312Z,93237.00
2023-03-29T11:20:22.320Z,93235.00
2023-03-29T11:21:22.306Z,93241.00
2023-03-29T11:22:22.296Z,93247.00
2023-03-29T11:23:22.308Z,93247.00
2023-03-29T11:24:22.335Z,93247.00
2023-03-29T11:25:22.298Z,93243.00
2023-03-29T11:26:22.308Z,93247.00
2023-03-29T11:27:22.312Z,93248.00
2023-03-29T11:28:22.316Z,93252.00
2023-03-29T11:29:22.319Z,93248.00
2023-03-29T11:30:22.330Z,93252.00
2023-03-29T11:31:22.363Z,93254.00
2023-03-29T11:32:22.366Z,93252.00
2023-03-29T11:33:22.382Z,93252.00
2023-03-29T11:34:22.381Z,93252.00
2023-03-29T11:35:22.382Z,93252.00
2023-03-29T11:36:22.411Z,93252.00
2023-03-29T11:37:22.425Z,93254.00
2023-03-29T11:38:22.463Z,93258.00
2023-03-29T11:39:22.484Z,93258.00
2023-03-29T11:40:22.525Z,93254.00
2023-03-29T11:41:22.543Z,93252.00
2023-03-29T11:42:23.283Z,93250.00
2023-03-29T11:43:22.598Z,93250.00
2023-03-29T11:44:22.642Z,93260.00